createdAt,value
2023-05-08T00:01:58.607Z,14.90
2023-05-08T00:04:45.852Z,13.63
2023-05-08T00:07:33.062Z,17.77
2023-05-08T00:10:20.309Z,16.38
2023-05-08T00:13:07.549Z,17.48
2023-05-08T00:15:54.916Z,14.98
2023-05-08T00:18:42.067Z,17.35
2023-05-08T00:21:29.492Z,17.40
2023-05-08T00:24:16.584Z,17.38
2023-05-08T00:27:03.713Z,17.75
2023-05-08T00:29:50.972Z,18.50
2023-05-08T00:32:38.120Z,16.95
2023-05-08T00:35:26.306Z,15.15
2023-05-08T00:38:14.293Z,19.42
2023-05-08T00:41:02.050Z,16.75
2023-05-08T00:43:49.245Z,19.58
2023-05-08T00:46:37.029Z,19.67
2023-05-08T00:49:25.240Z,15.65
2023-05-08T00:52:13.019Z,19.48
2023-05-08T00:55:02.340Z,15.68
2023-05-08T00:57:49.671Z,19.13
2023-05-08T01:00:37.530Z,20.02
2023-05-08T01:03:25.501Z,16.58
2023-05-08T01:06:12.814Z,16.25
2023-05-08T01:09:00.773Z,14.77
2023-05-08T01:12:03.452Z,18.05
2023-05-08T01:15:14.884Z,17.85
2023-05-08T01:18:33.346Z,17.90
2023-05-08T01:21:41.661Z,18.73
2023-05-08T01:24:58.030Z,21.77
2023-05-08T01:27:54.011Z,19.73
2023-05-08T01:31:19.724Z,21.98
2023-05-08T01:34:11.990Z,20.73
2023-05-08T01:37:06.206Z,25.73
2023-05-08T01:40:11.507Z,26.45
2023-05-08T01:43:32.699Z,26.35
2023-05-08T01:46:25.323Z,25.65
2023-05-08T01:49:34.932Z,22.67
2023-05-08T01:52:37.695Z,22.48
2023-05-08T01:55:30.560Z,21.48
2023-05-08T01:58:18.841Z,24.58
2023-05-08T02:01:06.217Z,22.67
2023-05-08T02:03:54.080Z,25.77
2023-05-08T02:06:41.594Z,23.20
2023-05-08T02:09:30.533Z,21.27
2023-05-08T02:12:18.356Z,22.83
2023-05-08T02:15:07.918Z,23.60
2023-05-08T02:17:55.917Z,21.67
2023-05-08T02:20:43.198Z,22.17
2023-05-08T02:23:33.002Z,22.50
2023-05-08T02:26:22.350Z,26.95
2023-05-08T02:29:10.064Z,24.38
2023-05-08T02:31:58.452Z,27.58
2023-05-08T02:34:58.759Z,30.52
2023-05-08T02:37:53.889Z,26.70
2023-05-08T02:40:48.516Z,29.55
2023-05-08T02:43:36.097Z,30.52
2023-05-08T02:46:53.453Z,32.53
2023-05-08T02:49:53.580Z,26.33
2023-05-08T02:52:52.161Z,31.37
2023-05-08T02:55:53.013Z,27.02
2023-05-08T02:58:45.912Z,29.92
2023-05-08T03:01:45.846Z,30.20
2023-05-08T03:04:37.486Z,25.92
2023-05-08T03:07:27.645Z,31.77
2023-05-08T03:10:16.732Z,35.53
2023-05-08T03:13:06.417Z,34.30
2023-05-08T03:15:57.486Z,36.25
2023-05-08T03:18:58.314Z,36.58
2023-05-08T03:21:47.499Z,41.90
2023-05-08T03:24:40.005Z,37.58
2023-05-08T03:27:29.389Z,43.92
2023-05-08T03:30:17.870Z,37.88
2023-05-08T03:33:13.094Z,39.20
2023-05-08T03:36:00.429Z,39.50
2023-05-08T03:38:48.330Z,42.95
2023-05-08T03:41:36.496Z,39.92
2023-05-08T03:44:24.511Z,46.00
2023-05-08T03:47:11.877Z,51.28
2023-05-08T03:50:00.457Z,43.47
2023-05-08T03:52:48.126Z,49.78
2023-05-08T03:55:36.464Z,53.03
2023-05-08T03:58:36.889Z,47.58
2023-05-08T04:01:44.638Z,54.03
2023-05-08T04:04:40.113Z,46.88
2023-05-08T04:07:37.983Z,51.63
2023-05-08T04:10:33.231Z,53.05
2023-05-08T04:13:27.373Z,51.58
2023-05-08T04:16:27.647Z,51.08
2023-05-08T04:19:23.072Z,55.63
2023-05-08T04:22:11.949Z,55.72
2023-05-08T04:25:03.263Z,61.88
2023-05-08T04:27:51.554Z,62.88
2023-05-08T04:30:40.846Z,60.05
2023-05-08T04:33:29.760Z,64.93
2023-05-08T04:36:17.726Z,71.47
2023-05-08T04:39:05.884Z,63.80
2023-05-08T04:41:55.207Z,72.45
2023-05-08T04:44:43.232Z,66.80
2023-05-08T04:47:31.084Z,70.78
2023-05-08T04:50:18.619Z,70.18
2023-05-08T04:53:06.672Z,78.00
2023-05-08T04:55:54.019Z,74.75
2023-05-08T04:58:41.391Z,73.13
2023-05-08T05:01:28.888Z,69.25
2023-05-08T05:04:19.226Z,69.63
2023-05-08T05:07:06.853Z,64.90
2023-05-08T05:09:54.271Z,72.63
2023-05-08T05:12:41.744Z,70.13
2023-05-08T05:15:29.811Z,67.57
2023-05-08T05:18:17.524Z,64.85
2023-05-08T05:21:04.953Z,67.05
2023-05-08T05:23:52.578Z,59.58
2023-05-08T05:26:41.247Z,57.85
2023-05-08T05:29:32.257Z,62.60
2023-05-08T05:32:20.904Z,54.17
2023-05-08T05:35:10.427Z,54.42
2023-05-08T05:37:58.008Z,54.28
2023-05-08T05:40:45.347Z,47.08
2023-05-08T05:43:33.462Z,47.72
2023-05-08T05:46:22.177Z,39.10
2023-05-08T05:49:14.543Z,42.30
2023-05-08T05:52:02.068Z,43.75
2023-05-08T05:54:49.586Z,42.90
2023-05-08T05:57:38.380Z,36.83
2023-05-08T06:00:26.368Z,35.20
2023-05-08T06:03:20.257Z,37.00
2023-05-08T06:06:11.021Z,34.15
2023-05-08T06:09:02.403Z,34.97
2023-05-08T06:14:38.589Z,35.95
2023-05-08T06:17:26.160Z,33.03
2023-05-08T06:20:13.747Z,36.28
2023-05-08T06:23:01.088Z,33.92
2023-05-08T06:25:50.081Z,30.65
2023-05-08T06:28:38.590Z,30.10
2023-05-08T06:31:26.526Z,36.15
2023-05-08T06:34:15.791Z,31.00
2023-05-08T06:37:03.102Z,29.85
2023-05-08T06:40:10.320Z,29.02
2023-05-08T06:42:59.084Z,25.73
2023-05-08T06:45:50.843Z,26.60
2023-05-08T06:48:41.828Z,26.90
2023-05-08T06:51:41.681Z,23.65
2023-05-08T06:54:29.041Z,24.20
2023-05-08T06:57:16.447Z,23.90
2023-05-08T07:00:04.153Z,22.70
2023-05-08T07:02:52.416Z,24.20
2023-05-08T07:05:39.755Z,23.35
2023-05-08T07:08:27.075Z,25.17
2023-05-08T07:11:14.648Z,26.40
2023-05-08T07:14:02.081Z,27.15
2023-05-08T07:16:49.581Z,28.73
2023-05-08T07:19:38.196Z,28.10
2023-05-08T07:22:27.980Z,29.33
2023-05-08T07:25:18.341Z,29.75
2023-05-08T07:28:05.620Z,27.90
2023-05-08T07:31:01.231Z,27.35
2023-05-08T07:33:48.734Z,32.33
2023-05-08T07:36:36.101Z,28.17
2023-05-08T07:39:26.517Z,26.52
2023-05-08T07:42:16.917Z,27.63
2023-05-08T07:45:06.954Z,28.30
2023-05-08T07:47:59.124Z,22.65
2023-05-08T07:50:47.762Z,23.85
2023-05-08T07:53:36.038Z,20.85
2023-05-08T07:59:28.957Z,18.85
2023-05-08T08:02:21.842Z,21.25
2023-05-08T08:05:13.280Z,19.30
2023-05-08T08:08:00.886Z,20.20
2023-05-08T08:10:48.752Z,19.80
2023-05-08T08:13:35.979Z,22.13
2023-05-08T08:16:23.426Z,19.02
2023-05-08T08:19:12.330Z,18.52
2023-05-08T08:21:59.736Z,22.25
2023-05-08T08:24:48.784Z,20.25
2023-05-08T08:27:37.321Z,21.42
2023-05-08T08:30:27.459Z,21.75
2023-05-08T08:33:19.081Z,20.80
2023-05-08T08:36:14.067Z,20.13
2023-05-08T08:39:04.955Z,20.52
2023-05-08T08:41:52.524Z,19.73
2023-05-08T08:44:40.418Z,20.42
2023-05-08T08:47:31.274Z,20.70
2023-05-08T08:50:21.807Z,18.08
2023-05-08T08:53:44.231Z,23.98
2023-05-08T08:56:33.317Z,20.88
2023-05-08T08:59:22.399Z,20.75
2023-05-08T09:02:12.765Z,18.27
2023-05-08T09:05:00.997Z,19.42
2023-05-08T09:07:55.120Z,18.50
2023-05-08T09:10:42.699Z,15.23
2023-05-08T09:14:01.880Z,18.33
2023-05-08T09:16:52.250Z,14.80
2023-05-08T09:19:39.923Z,18.70
2023-05-08T09:22:28.911Z,16.60
2023-05-08T09:25:19.861Z,18.70
2023-05-08T09:28:18.606Z,16.58
2023-05-08T09:31:06.383Z,18.92
2023-05-08T09:33:54.762Z,18.10
2023-05-08T09:36:42.378Z,17.75
2023-05-08T09:49:56.789Z,20.20
2023-05-08T10:10:14.237Z,15.73
2023-05-08T10:13:01.657Z,19.75
2023-05-08T10:15:53.744Z,16.95
2023-05-08T10:18:47.092Z,13.98
2023-05-08T10:21:37.699Z,15.68
2023-05-08T10:24:34.011Z,14.45
2023-05-08T10:27:30.535Z,15.52
2023-05-08T10:30:22.884Z,14.02
2023-05-08T10:33:11.035Z,14.73
2023-05-08T10:35:59.807Z,13.75
2023-05-08T10:38:48.029Z,12.50
2023-05-08T10:41:36.820Z,14.48
2023-05-08T10:44:26.847Z,17.05
2023-05-08T10:47:45.921Z,15.23
2023-05-08T10:50:46.464Z,12.77
2023-05-08T10:54:10.995Z,12.20
2023-05-08T10:57:08.808Z,13.60
2023-05-08T10:59:56.096Z,14.60
2023-05-08T11:02:49.295Z,16.13
2023-05-08T11:05:50.655Z,15.25
2023-05-08T11:08:51.993Z,15.95
2023-05-08T11:11:39.317Z,16.23
2023-05-08T11:14:26.976Z,13.38
2023-05-08T11:17:23.794Z,12.20
2023-05-08T11:20:11.350Z,15.68
2023-05-08T11:23:28.460Z,12.70
2023-05-08T11:26:16.572Z,14.25
2023-05-08T11:29:16.812Z,13.10
2023-05-08T11:32:04.617Z,14.45
2023-05-08T11:34:51.984Z,13.93
2023-05-08T11:37:41.479Z,14.18
2023-05-08T11:40:48.232Z,12.60
2023-05-08T11:43:38.504Z,12.25
2023-05-08T11:46:37.518Z,17.50
2023-05-08T11:49:29.714Z,12.25
2023-05-08T11:52:18.737Z,13.38
2023-05-08T11:55:08.749Z,12.25
2023-05-08T11:57:56.150Z,11.63
2023-05-08T12:00:48.885Z,11.57
2023-05-08T12:03:37.073Z,12.45
2023-05-08T12:06:24.546Z,12.95
2023-05-08T12:09:17.550Z,13.25
2023-05-08T12:12:04.994Z,13.07
2023-05-08T12:14:52.546Z,11.18
2023-05-08T12:17:40.034Z,12.57
2023-05-08T12:20:27.350Z,11.38
2023-05-08T12:23:17.487Z,10.15
2023-05-08T12:26:05.020Z,13.50
2023-05-08T12:28:57.103Z,10.70
2023-05-08T12:31:47.650Z,11.15
2023-05-08T12:34:37.818Z,11.70
2023-05-08T12:37:29.121Z,10.98
2023-05-08T12:40:35.557Z,12.95
2023-05-08T12:43:32.042Z,11.57
2023-05-08T12:46:19.479Z,12.07
2023-05-08T12:49:10.564Z,11.05
2023-05-08T12:52:16.396Z,10.73
2023-05-08T12:55:03.850Z,10.88
2023-05-08T12:58:00.534Z,12.27
2023-05-08T13:00:51.887Z,13.70
2023-05-08T13:03:40.997Z,14.23
2023-05-08T13:06:28.471Z,17.58
2023-05-08T13:09:18.750Z,13.68
2023-05-08T13:12:09.421Z,16.27
2023-05-08T13:14:57.530Z,12.65
2023-05-08T13:17:56.874Z,14.45
2023-05-08T13:20:44.418Z,12.70
2023-05-08T13:23:31.632Z,10.57
2023-05-08T13:26:19.217Z,10.52
2023-05-08T13:29:06.575Z,11.75
2023-05-08T13:31:53.806Z,9.35
2023-05-08T13:34:47.516Z,12.18
2023-05-08T13:37:38.181Z,9.63
2023-05-08T13:40:26.332Z,10.93
2023-05-08T13:43:13.554Z,9.55
2023-05-08T13:46:00.855Z,10.00
2023-05-08T13:48:48.466Z,8.60
2023-05-08T13:51:35.933Z,10.52
2023-05-08T13:54:23.257Z,8.80
2023-05-08T13:57:11.110Z,10.52
2023-05-08T13:59:58.436Z,10.63
2023-05-08T14:02:46.230Z,15.73
2023-05-08T14:05:34.900Z,12.35
2023-05-08T14:08:22.224Z,10.68
2023-05-08T14:11:11.336Z,9.18
2023-05-08T14:13:58.679Z,11.85
2023-05-08T14:16:45.940Z,9.60
2023-05-08T14:19:33.368Z,8.98
2023-05-08T14:22:20.684Z,11.10
2023-05-08T14:25:08.838Z,9.93
2023-05-08T14:27:56.216Z,10.32
2023-05-08T14:30:43.420Z,9.57
2023-05-08T14:33:30.850Z,8.60
2023-05-08T14:36:18.170Z,10.10
2023-05-08T14:39:05.661Z,11.80
2023-05-08T14:44:43.542Z,11.15
2023-05-08T14:47:33.029Z,8.95
2023-05-08T14:50:20.344Z,8.88
2023-05-08T14:53:07.674Z,11.40
2023-05-08T14:55:55.421Z,9.60
2023-05-08T14:58:43.031Z,9.25
2023-05-08T15:01:30.272Z,8.95
2023-05-08T15:04:17.788Z,7.95
2023-05-08T15:07:05.393Z,7.68
2023-05-08T15:09:53.215Z,9.85
2023-05-08T15:12:40.740Z,8.45
2023-05-08T15:15:28.198Z,9.18
2023-05-08T15:18:15.336Z,8.88
2023-05-08T15:21:02.589Z,8.15
2023-05-08T15:23:49.835Z,9.40
2023-05-08T15:26:37.027Z,6.68
2023-05-08T15:29:26.556Z,8.65
2023-05-08T15:32:14.022Z,11.93
2023-05-08T15:35:01.730Z,11.55
2023-05-08T15:37:48.984Z,8.65
2023-05-08T15:40:36.216Z,6.13
2023-05-08T15:43:23.341Z,6.75
2023-05-08T15:46:10.879Z,7.10
2023-05-08T15:48:59.327Z,7.43
2023-05-08T15:51:47.914Z,9.35
2023-05-08T15:54:35.116Z,8.10
2023-05-08T15:57:22.399Z,9.82
2023-05-08T16:00:10.197Z,6.93
2023-05-08T16:02:57.399Z,7.93
2023-05-08T16:05:44.699Z,10.90
2023-05-08T16:08:32.423Z,6.40
2023-05-08T16:11:20.004Z,8.13
2023-05-08T16:14:07.226Z,7.68
2023-05-08T16:16:54.538Z,9.32
2023-05-08T16:19:41.814Z,10.45
2023-05-08T16:22:29.775Z,7.63
2023-05-08T16:25:16.976Z,14.05
2023-05-08T16:28:04.156Z,7.80
2023-05-08T16:30:51.374Z,7.03
2023-05-08T16:33:38.611Z,9.02
2023-05-08T16:36:26.789Z,8.23
2023-05-08T16:39:14.004Z,7.35
2023-05-08T16:42:01.841Z,8.43
2023-05-08T16:44:49.076Z,10.48
2023-05-08T16:47:36.702Z,14.45
2023-05-08T16:50:26.898Z,10.00
2023-05-08T16:53:14.208Z,8.25
2023-05-08T16:56:26.849Z,9.43
2023-05-08T16:59:17.995Z,7.40
2023-05-08T17:02:05.611Z,8.98
2023-05-08T17:04:52.874Z,10.70
2023-05-08T17:07:40.043Z,11.32
2023-05-08T17:10:29.738Z,9.82
2023-05-08T17:13:16.966Z,8.85
2023-05-08T17:16:04.316Z,8.15
2023-05-08T17:18:51.556Z,8.40
2023-05-08T17:21:38.743Z,7.78
2023-05-08T17:24:25.958Z,11.98
2023-05-08T17:27:13.243Z,8.70
2023-05-08T17:30:00.595Z,9.13
2023-05-08T17:32:51.537Z,8.73
2023-05-08T17:38:26.390Z,9.38
2023-05-08T17:41:14.085Z,7.78
2023-05-08T17:44:01.301Z,8.57
2023-05-08T17:46:51.184Z,8.40
2023-05-08T17:49:38.482Z,10.35
2023-05-08T17:52:25.764Z,9.05
2023-05-08T17:55:13.056Z,8.98
2023-05-08T17:58:00.328Z,9.02
2023-05-08T18:00:47.693Z,9.48
2023-05-08T18:03:35.089Z,11.00
2023-05-08T18:06:22.716Z,9.73
2023-05-08T18:09:09.924Z,8.40
2023-05-08T18:12:02.286Z,12.60
2023-05-08T18:14:49.674Z,11.20
2023-05-08T18:17:36.964Z,10.07
2023-05-08T18:20:24.284Z,9.93
2023-05-08T18:23:11.462Z,10.70
2023-05-08T18:25:58.665Z,11.27
2023-05-08T18:28:46.317Z,10.25
2023-05-08T18:31:33.886Z,10.13
2023-05-08T18:34:21.180Z,9.93
2023-05-08T18:37:08.625Z,12.73
2023-05-08T18:39:55.902Z,11.00
2023-05-08T18:42:43.083Z,11.38
2023-05-08T18:45:30.350Z,11.18
2023-05-08T18:48:17.525Z,12.13
2023-05-08T18:51:04.952Z,11.73
2023-05-08T18:53:52.147Z,12.43
2023-05-08T18:56:39.370Z,12.82
2023-05-08T18:59:26.594Z,13.38
2023-05-08T19:02:14.490Z,13.60
2023-05-08T19:05:01.869Z,10.60
2023-05-08T19:07:49.019Z,13.25
2023-05-08T19:10:36.833Z,21.60
2023-05-08T19:13:24.123Z,16.90
2023-05-08T19:16:11.629Z,13.60
2023-05-08T19:18:59.926Z,14.80
2023-05-08T19:21:47.566Z,14.93
2023-05-08T19:24:34.938Z,14.98
2023-05-08T19:27:22.321Z,13.13
2023-05-08T19:30:10.180Z,15.13
2023-05-08T19:32:57.369Z,14.98
2023-05-08T19:35:44.502Z,16.85
2023-05-08T19:38:31.733Z,16.15
2023-05-08T19:41:19.065Z,16.30
2023-05-08T19:44:06.560Z,17.90
2023-05-08T19:46:53.878Z,19.63
2023-05-08T19:49:41.157Z,18.55
2023-05-08T19:52:28.369Z,18.90
2023-05-08T19:55:16.652Z,21.65
2023-05-08T19:58:03.759Z,20.25
2023-05-08T20:00:51.655Z,19.65
2023-05-08T20:03:39.245Z,23.23
2023-05-08T20:06:26.505Z,22.92
2023-05-08T20:09:13.801Z,22.73
2023-05-08T20:12:01.234Z,23.85
2023-05-08T20:14:48.560Z,26.05
2023-05-08T20:17:35.780Z,24.77
2023-05-08T20:20:23.193Z,25.00
2023-05-08T20:23:10.832Z,24.25
2023-05-08T20:25:57.978Z,27.33
2023-05-08T20:28:45.271Z,25.35
2023-05-08T20:31:32.653Z,25.98
2023-05-08T20:34:22.212Z,25.13
2023-05-08T20:37:09.592Z,26.40
2023-05-08T20:39:58.222Z,27.33
2023-05-08T20:42:45.396Z,25.33
2023-05-08T20:45:32.695Z,24.48
2023-05-08T20:48:19.964Z,23.08
2023-05-08T20:51:07.142Z,23.60
2023-05-08T20:53:54.377Z,24.65
2023-05-08T20:56:41.599Z,25.00
2023-05-08T20:59:28.795Z,26.88
2023-05-08T21:02:17.158Z,26.95
2023-05-08T21:05:05.847Z,27.45
2023-05-08T21:07:58.394Z,22.70
2023-05-08T21:10:45.880Z,24.48
2023-05-08T21:13:33.204Z,25.30
2023-05-08T21:16:20.445Z,24.52
2023-05-08T21:19:09.794Z,23.63
2023-05-08T21:21:57.028Z,22.60
2023-05-08T21:24:44.666Z,30.88
2023-05-08T21:27:31.882Z,24.25
2023-05-08T21:30:19.100Z,26.17
2023-05-08T21:33:06.391Z,24.33
2023-05-08T21:35:53.712Z,23.50
2023-05-08T21:38:41.487Z,23.85
2023-05-08T21:41:28.824Z,23.13
2023-05-08T21:44:16.700Z,24.38
2023-05-08T21:47:03.897Z,24.10
2023-05-08T21:49:50.999Z,26.60
2023-05-08T21:52:38.222Z,26.38
2023-05-08T21:55:26.031Z,26.73
2023-05-08T21:58:13.181Z,30.98
2023-05-08T22:01:00.644Z,28.77
2023-05-08T22:03:48.083Z,27.67
2023-05-08T22:06:35.402Z,29.13
2023-05-08T22:09:22.568Z,30.98
2023-05-08T22:12:10.088Z,29.90
2023-05-08T22:14:57.280Z,31.38
2023-05-08T22:17:44.402Z,33.25
2023-05-08T22:20:31.613Z,35.42
2023-05-08T22:23:18.839Z,35.17
2023-05-08T22:26:06.082Z,32.97
2023-05-08T22:28:53.447Z,33.67
2023-05-08T22:31:40.773Z,34.47
2023-05-08T22:34:27.928Z,32.40
2023-05-08T22:37:15.425Z,33.38
2023-05-08T22:40:02.899Z,32.78
2023-05-08T22:42:51.594Z,35.63
2023-05-08T22:45:38.894Z,31.90
2023-05-08T22:48:26.186Z,34.08
2023-05-08T22:51:13.494Z,31.48
2023-05-08T22:54:00.745Z,31.02
2023-05-08T22:56:48.373Z,33.75
2023-05-08T22:59:36.435Z,32.92
2023-05-08T23:02:24.342Z,36.00
2023-05-08T23:05:13.207Z,34.97
2023-05-08T23:08:01.309Z,35.55
2023-05-08T23:10:49.236Z,33.35
2023-05-08T23:13:36.400Z,32.13
2023-05-08T23:16:23.630Z,36.50
2023-05-08T23:19:10.960Z,35.20
2023-05-08T23:21:58.142Z,34.95
2023-05-08T23:24:45.279Z,31.67
2023-05-08T23:27:32.683Z,32.67
2023-05-08T23:30:20.626Z,40.88
2023-05-08T23:33:08.590Z,29.25
2023-05-08T23:35:56.923Z,29.33
2023-05-08T23:38:44.245Z,28.25
2023-05-08T23:41:32.576Z,24.38
2023-05-08T23:44:20.294Z,26.48
2023-05-08T23:47:07.480Z,25.08
2023-05-08T23:49:54.647Z,27.55
2023-05-08T23:52:41.782Z,26.58
2023-05-08T23:55:29.777Z,31.05
2023-05-08T23:58:18.355Z,28.08
